Time;durP1;ratioP1;P1;durP2;ratioP2;P2;SDS_P1;SDS_P2;PMS_P1;PMS_P2;Temp;Humidity;BMP_temperature;BMP_pressure;BME280_temperature;BME280_humidity;BME280_pressure;Samples;Min_cycle;Max_cycle;Signal;HPM_P1;HPM_P2
2022/06/17 00:00:51;;;;;;;1.20;1.10;;;16.10;50.70;;;;;;639216;224;26514;-64
2022/06/17 00:03:18;;;;;;;1.15;1.05;;;16.10;50.90;;;;;;639068;224;26515;-64
2022/06/17 00:05:45;;;;;;;0.98;0.80;;;16.00;50.80;;;;;;639253;225;26735;-64
2022/06/17 00:08:15;;;;;;;2.03;1.10;;;16.00;50.90;;;;;;639270;225;26541;-64
2022/06/17 00:10:43;;;;;;;1.30;1.05;;;16.00;51.10;;;;;;639044;224;26807;-64
2022/06/17 00:13:13;;;;;;;2.30;1.15;;;16.00;51.10;;;;;;638993;224;26512;-64
2022/06/17 00:15:40;;;;;;;1.10;1.00;;;16.00;51.10;;;;;;639002;225;26531;-64
2022/06/17 00:18:07;;;;;;;0.93;0.93;;;16.00;51.10;;;;;;638948;224;26594;-64
2022/06/17 00:20:34;;;;;;;0.90;0.90;;;16.00;51.20;;;;;;639000;225;26850;-64
2022/06/17 00:23:02;;;;;;;1.00;1.00;;;16.00;51.10;;;;;;639013;225;26565;-64
2022/06/17 00:25:30;;;;;;;1.67;1.10;;;16.00;51.10;;;;;;639031;224;26595;-64
2022/06/17 00:27:57;;;;;;;0.80;0.80;;;16.00;51.10;;;;;;638824;223;26590;-64
2022/06/17 00:30:24;;;;;;;0.90;0.90;;;16.10;51.10;;;;;;639029;223;26760;-64
2022/06/17 00:32:52;;;;;;;1.00;1.00;;;16.10;51.20;;;;;;638831;224;26562;-65
2022/06/17 00:35:20;;;;;;;1.10;1.02;;;16.10;51.20;;;;;;638983;225;27316;-64
2022/06/17 00:37:47;;;;;;;0.93;0.93;;;16.00;51.10;;;;;;638367;222;26791;-64
2022/06/17 00:40:16;;;;;;;1.17;1.02;;;16.10;51.30;;;;;;639023;224;26571;-64
2022/06/17 00:42:43;;;;;;;1.08;1.08;;;16.10;51.40;;;;;;639189;224;26783;-64
2022/06/17 00:45:19;;;;;;;1.20;1.10;;;16.10;51.40;;;;;;639369;224;26495;-64
2022/06/17 00:47:53;;;;;;;1.10;0.90;;;16.10;51.50;;;;;;640774;223;26518;-64
2022/06/17 00:50:28;;;;;;;1.23;1.10;;;16.00;51.60;;;;;;640620;224;26518;-64
2022/06/17 00:53:00;;;;;;;1.40;1.30;;;16.10;51.60;;;;;;639869;224;26557;-70
2022/06/17 00:55:30;;;;;;;1.10;1.00;;;16.00;51.60;;;;;;639903;225;26543;-64
2022/06/17 00:57:58;;;;;;;1.83;1.10;;;16.10;51.70;;;;;;639516;224;26515;-64
2022/06/17 01:00:25;;;;;;;2.25;1.20;;;16.00;51.80;;;;;;639502;224;26779;-64
2022/06/17 01:02:53;;;;;;;1.12;1.02;;;16.00;52.00;;;;;;639733;225;26729;-64
2022/06/17 01:05:21;;;;;;;1.30;1.20;;;16.00;52.10;;;;;;639235;225;26746;-64
2022/06/17 01:07:54;;;;;;;1.00;1.00;;;16.00;52.40;;;;;;639172;224;26514;-64
2022/06/17 01:10:21;;;;;;;1.65;1.00;;;16.00;52.40;;;;;;639119;224;26525;-63
2022/06/17 01:12:50;;;;;;;1.48;1.02;;;15.90;52.50;;;;;;639368;223;26752;-64
2022/06/17 01:15:17;;;;;;;1.48;1.23;;;15.90;52.70;;;;;;639221;219;26708;-64
2022/06/17 01:17:44;;;;;;;1.12;1.05;;;15.90;52.70;;;;;;639253;222;26509;-64
2022/06/17 01:20:11;;;;;;;1.10;1.00;;;15.80;52.80;;;;;;639360;225;27041;-64
2022/06/17 01:22:40;;;;;;;1.30;1.20;;;15.70;53.00;;;;;;639222;225;26562;-64
2022/06/17 01:25:14;;;;;;;1.60;1.50;;;15.70;53.00;;;;;;638956;224;26514;-64
2022/06/17 01:27:46;;;;;;;2.12;1.20;;;15.70;53.50;;;;;;638826;222;26562;-64
2022/06/17 01:30:13;;;;;;;1.17;1.10;;;15.70;53.40;;;;;;638954;225;26793;-64
2022/06/17 01:32:46;;;;;;;1.02;1.00;;;15.60;54.00;;;;;;638820;224;26581;-64
2022/06/17 01:35:13;;;;;;;1.20;1.10;;;15.60;53.70;;;;;;638626;223;26561;-64
2022/06/17 01:37:40;;;;;;;1.27;1.10;;;15.60;53.90;;;;;;638905;222;26779;-64
2022/06/17 01:40:09;;;;;;;1.45;1.30;;;15.50;54.00;;;;;;638914;224;26571;-64
2022/06/17 01:42:36;;;;;;;1.65;1.20;;;15.50;54.00;;;;;;639007;225;26561;-64
2022/06/17 01:45:04;;;;;;;1.35;1.25;;;15.40;54.10;;;;;;638995;224;26551;-64
2022/06/17 01:47:32;;;;;;;1.40;1.15;;;15.40;54.40;;;;;;638988;225;26559;-64
2022/06/17 01:50:02;;;;;;;1.05;0.95;;;15.30;54.50;;;;;;639014;223;26566;-64
2022/06/17 01:52:33;;;;;;;1.50;1.20;;;15.30;54.90;;;;;;638782;224;26571;-64
2022/06/17 01:55:05;;;;;;;1.70;1.10;;;15.20;54.90;;;;;;638846;224;27283;-64
2022/06/17 01:57:32;;;;;;;1.48;1.30;;;15.20;55.00;;;;;;638786;224;26595;-64
2022/06/17 02:00:00;;;;;;;1.33;1.10;;;15.20;55.10;;;;;;640696;222;26786;-64
2022/06/17 02:02:27;;;;;;;1.33;1.20;;;15.20;55.70;;;;;;639932;224;26791;-64
2022/06/17 02:04:57;;;;;;;1.40;1.23;;;15.10;55.40;;;;;;639858;225;26475;-64
2022/06/17 02:07:22;;;;;;;1.05;1.05;;;15.20;55.50;;;;;;639399;224;26782;-64
2022/06/17 02:09:49;;;;;;;1.62;1.25;;;15.10;55.50;;;;;;639285;223;26542;-65
2022/06/17 02:12:16;;;;;;;1.00;0.93;;;15.10;55.50;;;;;;639635;225;27069;-65
2022/06/17 02:14:43;;;;;;;1.35;1.25;;;15.10;55.70;;;;;;639574;224;26523;-65
2022/06/17 02:17:11;;;;;;;1.50;1.20;;;15.10;55.90;;;;;;639400;224;26467;-65
2022/06/17 02:19:39;;;;;;;1.50;1.20;;;15.00;56.10;;;;;;639302;225;26526;-65
2022/06/17 02:22:06;;;;;;;0.85;0.82;;;15.10;56.10;;;;;;639261;225;26514;-65
2022/06/17 02:24:34;;;;;;;1.10;1.00;;;15.00;56.10;;;;;;638990;224;26535;-65
2022/06/17 02:27:03;;;;;;;1.00;1.00;;;15.00;55.70;;;;;;639337;225;26531;-65
2022/06/17 02:29:30;;;;;;;1.00;1.00;;;15.00;56.10;;;;;;639235;223;26549;-65
2022/06/17 02:31:57;;;;;;;1.17;0.98;;;15.00;56.20;;;;;;639195;224;26770;-65
2022/06/17 02:34:25;;;;;;;1.05;1.00;;;14.90;56.20;;;;;;639531;225;26543;-65
2022/06/17 02:36:55;;;;;;;1.25;1.15;;;14.90;56.30;;;;;;639391;225;26988;-65
2022/06/17 02:39:23;;;;;;;1.25;1.10;;;14.80;56.60;;;;;;639301;224;26561;-65
2022/06/17 02:41:51;;;;;;;1.10;1.10;;;14.80;56.90;;;;;;639370;224;26580;-64
2022/06/17 02:44:24;;;;;;;0.90;0.90;;;14.80;57.20;;;;;;639021;225;26558;-64
2022/06/17 02:46:52;;;;;;;1.00;1.00;;;14.70;56.80;;;;;;638848;225;26787;-65
2022/06/17 02:49:22;;;;;;;1.17;0.90;;;14.80;57.00;;;;;;638880;224;26591;-63
2022/06/17 02:51:49;;;;;;;1.35;1.00;;;14.80;57.20;;;;;;638881;224;26795;-64
2022/06/17 02:54:17;;;;;;;2.12;1.10;;;14.80;57.20;;;;;;638959;225;26581;-63
2022/06/17 02:56:45;;;;;;;1.33;1.20;;;14.70;57.30;;;;;;638249;224;26779;-64
2022/06/17 02:59:30;;;;;;;1.10;1.10;;;14.70;57.50;;;;;;638650;224;26567;-64
2022/06/17 03:01:58;;;;;;;2.97;1.08;;;14.60;57.50;;;;;;638848;224;26561;-65
2022/06/17 03:04:26;;;;;;;1.45;1.05;;;14.60;57.80;;;;;;638540;224;26562;-65
2022/06/17 03:06:54;;;;;;;1.10;1.00;;;14.60;57.90;;;;;;638864;224;26582;-64
2022/06/17 03:09:22;;;;;;;1.70;1.30;;;14.60;57.90;;;;;;638996;223;26613;-65
2022/06/17 03:11:54;;;;;;;1.15;1.05;;;14.60;58.10;;;;;;640551;224;26552;-64
2022/06/17 03:14:22;;;;;;;2.25;1.27;;;14.50;58.00;;;;;;639899;224;26523;-64
2022/06/17 03:16:52;;;;;;;1.20;1.10;;;14.60;58.40;;;;;;639840;225;26758;-64
2022/06/17 03:19:19;;;;;;;1.20;1.10;;;14.50;58.30;;;;;;639668;218;26829;-64
2022/06/17 03:21:47;;;;;;;1.33;1.23;;;14.50;58.10;;;;;;639588;225;26494;-65
2022/06/17 03:24:19;;;;;;;1.67;1.50;;;14.60;58.20;;;;;;639630;225;26755;-65
2022/06/17 03:26:49;;;;;;;1.20;0.95;;;14.60;58.30;;;;;;639127;224;26527;-64
2022/06/17 03:29:16;;;;;;;1.30;1.20;;;14.50;58.50;;;;;;638975;224;26554;-63
2022/06/17 03:31:48;;;;;;;1.37;1.27;;;14.50;58.60;;;;;;639077;224;26746;-64
2022/06/17 03:34:19;;;;;;;1.00;1.00;;;14.40;58.60;;;;;;639022;224;26531;-65
2022/06/17 03:36:47;;;;;;;1.25;1.15;;;14.40;58.80;;;;;;639195;224;26533;-64
2022/06/17 03:39:18;;;;;;;1.30;1.20;;;14.40;58.80;;;;;;639024;224;26558;-64
2022/06/17 03:41:58;;;;;;;1.30;1.20;;;14.50;58.70;;;;;;639130;224;26518;-64
2022/06/17 03:44:26;;;;;;;1.25;1.10;;;14.40;58.70;;;;;;639368;224;26515;-64
2022/06/17 03:46:53;;;;;;;1.17;1.08;;;14.50;58.70;;;;;;638531;224;26810;-64
2022/06/17 03:49:21;;;;;;;1.50;1.40;;;14.50;58.50;;;;;;638766;222;26578;-64
2022/06/17 03:51:49;;;;;;;1.30;1.25;;;14.50;58.50;;;;;;638754;224;26780;-64
2022/06/17 03:54:16;;;;;;;1.75;1.20;;;14.60;58.40;;;;;;638810;224;26626;-64
2022/06/17 03:56:43;;;;;;;2.25;1.23;;;14.60;58.40;;;;;;638923;225;26774;-64
2022/06/17 03:59:10;;;;;;;2.40;1.17;;;14.60;58.30;;;;;;638532;222;26584;-64
2022/06/17 04:01:40;;;;;;;1.95;1.30;;;14.70;58.40;;;;;;638387;224;26561;-64
2022/06/17 04:04:20;;;;;;;1.12;1.00;;;14.70;58.30;;;;;;638665;219;26582;-64
2022/06/17 04:06:47;;;;;;;1.20;1.10;;;14.70;58.30;;;;;;639100;224;26788;-66
2022/06/17 04:09:19;;;;;;;1.00;1.00;;;14.70;58.20;;;;;;638855;222;26573;-66
2022/06/17 04:11:47;;;;;;;1.05;1.02;;;14.80;58.20;;;;;;638871;225;26808;-66
2022/06/17 04:14:18;;;;;;;1.35;1.20;;;14.80;58.10;;;;;;638871;224;26572;-66
2022/06/17 04:16:45;;;;;;;1.25;1.20;;;14.90;58.20;;;;;;639208;221;26545;-67
2022/06/17 04:19:13;;;;;;;1.40;1.17;;;14.90;58.10;;;;;;638805;222;26559;-66
2022/06/17 04:21:41;;;;;;;1.45;1.00;;;15.10;58.00;;;;;;639987;223;26492;-66
2022/06/17 04:24:13;;;;;;;1.45;1.10;;;15.10;58.00;;;;;;640892;224;26500;-66
2022/06/17 04:26:40;;;;;;;1.08;1.00;;;15.10;58.00;;;;;;640315;225;26637;-67
2022/06/17 04:29:07;;;;;;;1.20;1.10;;;15.20;58.10;;;;;;640043;225;26536;-67
2022/06/17 04:31:35;;;;;;;1.23;1.12;;;15.10;58.40;;;;;;639400;224;26731;-67
2022/06/17 04:34:03;;;;;;;1.05;0.90;;;15.10;58.40;;;;;;639681;225;26884;-67
2022/06/17 04:36:36;;;;;;;1.48;1.37;;;15.10;58.50;;;;;;639556;224;26529;-67
2022/06/17 04:39:04;;;;;;;1.12;1.00;;;15.10;58.60;;;;;;639040;224;26565;-67
2022/06/17 04:41:32;;;;;;;0.90;0.90;;;15.10;59.00;;;;;;637541;224;26517;-67
2022/06/17 04:43:59;;;;;;;0.98;0.98;;;15.10;59.00;;;;;;638840;224;26514;-67
2022/06/17 04:46:27;;;;;;;1.35;1.25;;;15.10;59.20;;;;;;639313;224;26482;-67
2022/06/17 04:48:57;;;;;;;1.27;1.20;;;15.30;59.20;;;;;;638787;222;26542;-67
2022/06/17 04:51:23;;;;;;;2.35;1.15;;;15.40;58.80;;;;;;639273;224;26523;-67
2022/06/17 04:53:51;;;;;;;1.10;1.10;;;15.40;58.80;;;;;;639145;224;26510;-67
2022/06/17 04:56:24;;;;;;;1.12;1.12;;;15.40;58.80;;;;;;639303;225;26502;-67
2022/06/17 04:58:51;;;;;;;2.72;1.30;;;15.50;58.70;;;;;;638690;224;26777;-67
2022/06/17 05:01:19;;;;;;;1.40;1.33;;;15.70;58.50;;;;;;638950;224;26555;-67
2022/06/17 05:03:47;;;;;;;0.98;0.98;;;15.80;58.60;;;;;;638998;225;26585;-67
2022/06/17 05:06:16;;;;;;;1.30;1.20;;;15.80;58.50;;;;;;639032;225;26570;-67
2022/06/17 05:08:44;;;;;;;1.30;1.20;;;15.90;58.40;;;;;;638915;223;26590;-67
2022/06/17 05:11:15;;;;;;;1.20;1.15;;;16.00;58.90;;;;;;638688;224;26588;-66
2022/06/17 05:13:42;;;;;;;1.33;1.23;;;16.00;58.10;;;;;;638652;224;26564;-66
2022/06/17 05:16:15;;;;;;;2.55;1.30;;;16.00;58.30;;;;;;639084;224;26818;-67
2022/06/17 05:18:43;;;;;;;2.15;1.33;;;16.00;58.30;;;;;;639421;222;26518;-66
2022/06/17 05:21:15;;;;;;;2.50;1.12;;;16.10;58.40;;;;;;639396;224;26541;-66
2022/06/17 05:23:43;;;;;;;1.27;1.17;;;16.20;58.40;;;;;;639155;224;26722;-66
2022/06/17 05:26:11;;;;;;;1.20;1.10;;;16.20;58.20;;;;;;639365;225;26761;-67
2022/06/17 05:28:39;;;;;;;2.10;1.05;;;16.50;58.00;;;;;;639366;224;26587;-67
2022/06/17 05:31:07;;;;;;;1.30;1.17;;;16.50;58.10;;;;;;639375;224;26529;-67
2022/06/17 05:33:37;;;;;;;1.17;1.17;;;16.50;58.00;;;;;;640268;223;26547;-67
2022/06/17 05:36:03;;;;;;;1.75;1.20;;;16.60;58.00;;;;;;640802;224;26478;-66
2022/06/17 05:38:30;;;;;;;1.17;1.10;;;16.60;58.00;;;;;;640170;223;26532;-68
2022/06/17 05:40:57;;;;;;;1.40;1.30;;;16.70;57.80;;;;;;639946;224;26522;-67
2022/06/17 05:43:25;;;;;;;1.40;1.30;;;16.70;57.70;;;;;;639656;225;27166;-67
2022/06/17 05:45:52;;;;;;;2.00;1.12;;;16.80;57.60;;;;;;639627;224;26524;-67
2022/06/17 05:48:19;;;;;;;1.70;1.35;;;16.90;57.40;;;;;;639598;223;26767;-67
2022/06/17 05:50:46;;;;;;;2.20;1.27;;;17.10;57.30;;;;;;639570;225;26478;-67
2022/06/17 05:53:13;;;;;;;1.48;0.98;;;17.20;57.10;;;;;;639292;225;26768;-67
2022/06/17 05:55:41;;;;;;;1.40;1.20;;;17.30;56.90;;;;;;639320;223;26511;-67
2022/06/17 05:58:08;;;;;;;1.73;1.20;;;17.30;56.90;;;;;;639257;224;26776;-67
2022/06/17 06:00:36;;;;;;;1.42;1.33;;;17.60;56.50;;;;;;639346;225;26513;-67
2022/06/17 06:03:04;;;;;;;1.30;1.20;;;17.80;56.20;;;;;;639303;225;26519;-67
2022/06/17 06:05:32;;;;;;;1.50;1.33;;;17.80;56.00;;;;;;639346;223;26525;-67
2022/06/17 06:07:59;;;;;;;1.52;1.40;;;17.80;56.00;;;;;;639195;223;26522;-67
2022/06/17 06:10:26;;;;;;;1.27;1.17;;;17.90;56.00;;;;;;639031;225;26796;-67
2022/06/17 06:12:54;;;;;;;1.52;1.25;;;18.10;55.90;;;;;;639028;225;26539;-67
2022/06/17 06:15:21;;;;;;;1.30;1.08;;;18.20;55.60;;;;;;638978;223;26575;-67
2022/06/17 06:17:48;;;;;;;1.62;1.37;;;18.40;55.20;;;;;;638925;225;26795;-67
2022/06/17 06:20:16;;;;;;;1.48;1.37;;;18.20;55.10;;;;;;638993;225;26592;-67
2022/06/17 06:22:44;;;;;;;2.65;1.35;;;18.40;55.20;;;;;;638968;225;26589;-67
2022/06/17 06:25:12;;;;;;;1.58;1.40;;;18.70;54.80;;;;;;639029;224;26579;-67
2022/06/17 06:27:40;;;;;;;1.70;1.27;;;18.90;54.20;;;;;;638932;224;26561;-67
2022/06/17 06:30:08;;;;;;;2.37;1.40;;;18.90;54.20;;;;;;639005;225;26539;-67
2022/06/17 06:32:35;;;;;;;1.52;1.42;;;19.00;53.70;;;;;;637924;224;26554;-67
2022/06/17 06:35:02;;;;;;;1.50;1.40;;;19.00;54.00;;;;;;639014;224;26784;-67
2022/06/17 06:37:30;;;;;;;1.20;1.10;;;19.00;53.30;;;;;;638950;225;26564;-67
2022/06/17 06:39:58;;;;;;;1.85;1.50;;;19.00;53.40;;;;;;638926;224;26543;-67
2022/06/17 06:42:26;;;;;;;1.35;1.20;;;19.00;53.30;;;;;;638990;219;26552;-67
2022/06/17 06:44:53;;;;;;;1.42;1.33;;;19.00;53.60;;;;;;639886;223;26563;-67
2022/06/17 06:47:20;;;;;;;1.30;1.23;;;19.10;53.10;;;;;;640482;222;26932;-67
2022/06/17 06:49:47;;;;;;;1.50;1.40;;;19.00;53.20;;;;;;640020;223;26567;-67
2022/06/17 06:52:16;;;;;;;1.60;1.50;;;19.20;53.10;;;;;;640032;225;26768;-66
2022/06/17 06:54:41;;;;;;;2.67;1.30;;;19.30;53.00;;;;;;640014;224;26544;-67
2022/06/17 06:57:10;;;;;;;1.85;1.30;;;19.40;53.00;;;;;;640032;224;26811;-67
2022/06/17 06:59:37;;;;;;;1.48;1.37;;;19.60;52.70;;;;;;640028;225;26765;-66
2022/06/17 07:02:05;;;;;;;1.50;1.40;;;19.80;52.50;;;;;;640014;225;26527;-67
2022/06/17 07:04:32;;;;;;;1.80;1.70;;;19.50;52.40;;;;;;639710;219;26777;-66
2022/06/17 07:06:59;;;;;;;2.40;1.30;;;19.70;52.10;;;;;;639587;224;26511;-67
2022/06/17 07:09:26;;;;;;;1.58;1.33;;;19.60;52.00;;;;;;639283;223;26543;-66
2022/06/17 07:11:54;;;;;;;1.80;1.60;;;19.80;51.90;;;;;;639326;224;26530;-67
2022/06/17 07:14:22;;;;;;;2.60;1.55;;;20.00;51.40;;;;;;639354;218;26502;-67
2022/06/17 07:16:50;;;;;;;1.62;1.45;;;20.00;51.70;;;;;;639263;225;26563;-67
2022/06/17 07:19:19;;;;;;;1.52;1.15;;;19.90;51.60;;;;;;639275;223;26542;-66
2022/06/17 07:21:45;;;;;;;2.22;1.50;;;20.00;51.30;;;;;;638877;224;26541;-67
2022/06/17 07:24:13;;;;;;;1.45;1.37;;;20.00;51.20;;;;;;638947;225;26792;-67
2022/06/17 07:26:39;;;;;;;1.98;1.52;;;20.20;51.00;;;;;;638915;224;26553;-67
2022/06/17 07:29:08;;;;;;;1.90;1.40;;;20.20;50.90;;;;;;638928;225;26816;-67
2022/06/17 07:31:33;;;;;;;2.83;1.60;;;20.30;50.90;;;;;;638795;224;26590;-67
2022/06/17 07:34:01;;;;;;;2.15;1.48;;;20.50;50.80;;;;;;639045;224;26781;-68
2022/06/17 07:41:34;;;;;;;2.92;1.30;;;20.50;50.30;;;;;;641597;221;26807;-69
2022/06/17 07:44:01;;;;;;;2.95;1.58;;;20.50;50.50;;;;;;641179;221;26559;-69
2022/06/17 07:46:28;;;;;;;1.87;1.60;;;20.60;50.30;;;;;;642666;221;26890;-69
2022/06/17 07:48:55;;;;;;;3.12;1.50;;;20.50;50.20;;;;;;641614;220;26605;-69
2022/06/17 07:51:22;;;;;;;2.42;1.48;;;20.50;50.00;;;;;;641612;221;26575;-70
2022/06/17 07:53:50;;;;;;;1.85;1.50;;;20.50;49.80;;;;;;639758;221;26531;-70
2022/06/17 07:56:19;;;;;;;1.60;1.27;;;20.30;49.60;;;;;;641737;221;26524;-70
2022/06/17 07:58:46;;;;;;;1.73;1.60;;;20.30;50.10;;;;;;642450;220;26610;-68
2022/06/17 08:01:13;;;;;;;2.55;1.95;;;20.60;49.90;;;;;;643094;220;26578;-68
2022/06/17 08:03:41;;;;;;;2.10;1.48;;;20.60;49.90;;;;;;647810;221;26544;-67
2022/06/17 08:06:10;;;;;;;1.60;1.50;;;20.70;49.10;;;;;;644181;221;26520;-72
2022/06/17 08:08:37;;;;;;;2.47;1.48;;;20.70;49.00;;;;;;644110;221;26557;-71
2022/06/17 08:11:05;;;;;;;2.28;1.55;;;20.50;48.90;;;;;;641813;221;26544;-68
2022/06/17 08:13:32;;;;;;;3.45;1.67;;;20.50;48.90;;;;;;646999;221;26489;-69
2022/06/17 08:16:00;;;;;;;3.50;1.60;;;20.70;49.20;;;;;;642095;221;26992;-67
2022/06/17 08:18:27;;;;;;;7.45;1.70;;;20.70;48.50;;;;;;642736;221;26553;-69
2022/06/17 08:20:55;;;;;;;6.00;1.77;;;20.80;48.50;;;;;;641121;221;26539;-72
2022/06/17 08:23:23;;;;;;;2.58;1.65;;;20.80;48.10;;;;;;642011;221;26574;-70
2022/06/17 08:25:51;;;;;;;3.00;1.33;;;20.80;48.10;;;;;;640052;221;26589;-70
2022/06/17 08:28:19;;;;;;;1.62;1.48;;;20.90;48.00;;;;;;646661;218;26558;-68
2022/06/17 08:30:47;;;;;;;1.83;1.60;;;21.00;47.80;;;;;;648499;221;26514;-69
2022/06/17 08:33:14;;;;;;;1.50;1.40;;;21.00;47.80;;;;;;646678;218;26762;-69
2022/06/17 08:35:42;;;;;;;1.60;1.50;;;20.90;47.80;;;;;;645612;221;26552;-69
2022/06/17 08:38:13;;;;;;;4.18;1.80;;;20.90;46.90;;;;;;641570;221;26812;-69
2022/06/17 08:40:43;;;;;;;2.78;1.65;;;21.10;46.70;;;;;;639099;221;26577;-68
2022/06/17 08:43:28;;;;;;;2.95;1.40;;;21.00;46.10;;;;;;645660;221;26524;-67
2022/06/17 08:46:27;;;;;;;1.52;1.40;;;21.00;45.70;;;;;;638105;225;26596;-69
2022/06/17 08:49:32;;;;;;;1.67;1.58;;;21.00;46.20;;;;;;649462;220;26759;-68
2022/06/17 08:52:21;;;;;;;1.92;1.40;;;21.10;46.10;;;;;;615303;230;26651;-70
2022/06/17 08:55:02;;;;;;;1.30;1.20;;;21.10;46.10;;;;;;613999;231;26623;-67
2022/06/17 08:57:36;;;;;;;1.85;1.30;;;21.10;46.00;;;;;;630816;227;26755;-72
2022/06/17 09:00:05;;;;;;;1.52;1.40;;;21.20;45.20;;;;;;628400;227;26597;-71
2022/06/17 09:02:39;;;;;;;1.80;1.00;;;21.30;45.30;;;;;;628115;227;26613;-70
2022/06/17 09:05:25;;;;;;;1.73;1.10;;;21.10;44.70;;;;;;631856;227;26553;-69
2022/06/17 09:08:17;;;;;;;2.92;2.62;;;21.10;44.70;;;;;;631270;225;26630;-71
2022/06/17 09:10:45;;;;;;;1.30;1.20;;;21.20;44.20;;;;;;630993;227;26620;-71
2022/06/17 09:13:22;;;;;;;1.30;1.20;;;21.40;44.30;;;;;;623095;227;26560;-71
2022/06/17 09:15:53;;;;;;;1.35;1.33;;;21.40;44.30;;;;;;623295;230;26820;-70
2022/06/17 09:18:28;;;;;;;1.60;1.50;;;21.40;44.60;;;;;;630728;227;26575;-69
2022/06/17 09:20:56;;;;;;;1.73;1.60;;;21.50;44.10;;;;;;632568;227;26611;-69
2022/06/17 09:23:23;;;;;;;1.33;1.23;;;21.60;43.90;;;;;;628114;227;26599;-69
2022/06/17 09:25:51;;;;;;;1.33;1.25;;;21.50;43.30;;;;;;623495;230;26541;-69
2022/06/17 09:28:19;;;;;;;1.50;1.40;;;21.50;43.50;;;;;;630646;227;26565;-69
2022/06/17 09:30:48;;;;;;;1.10;1.10;;;21.60;42.80;;;;;;623174;227;27046;-70
2022/06/17 09:33:17;;;;;;;0.93;0.88;;;21.60;42.80;;;;;;631010;227;26768;-70
2022/06/17 09:35:48;;;;;;;0.90;0.90;;;21.80;43.10;;;;;;630617;227;26556;-70
2022/06/17 09:38:21;;;;;;;1.85;1.73;;;21.80;43.70;;;;;;623248;230;26558;-72
2022/06/17 09:41:06;;;;;;;1.35;1.25;;;21.80;43.70;;;;;;629934;227;26529;-68
2022/06/17 09:43:54;;;;;;;7.15;2.35;;;22.00;43.60;;;;;;630915;227;26564;-69
2022/06/17 09:46:25;;;;;;;92.00;18.55;;;22.00;43.50;;;;;;627652;227;27329;-70
2022/06/17 09:48:57;;;;;;;116.45;25.62;;;22.00;43.10;;;;;;626287;227;26615;-69
2022/06/17 09:51:30;;;;;;;165.50;34.80;;;22.00;43.10;;;;;;630145;227;26753;-70
2022/06/17 09:53:57;;;;;;;93.12;21.52;;;22.00;42.80;;;;;;629443;227;26604;-71
2022/06/17 09:56:37;;;;;;;102.60;23.58;;;22.00;42.80;;;;;;631781;227;26533;-69
2022/06/17 09:59:12;;;;;;;30.37;8.32;;;22.10;42.70;;;;;;625769;227;26608;-70
2022/06/17 10:01:38;;;;;;;42.47;9.18;;;22.20;43.20;;;;;;630172;227;26577;-71
2022/06/17 10:04:05;;;;;;;14.60;4.47;;;22.30;42.00;;;;;;630182;227;26549;-71
2022/06/17 10:06:43;;;;;;;19.25;5.70;;;22.30;41.40;;;;;;631575;227;26538;-71
2022/06/17 10:09:19;;;;;;;1.62;1.48;;;22.30;41.10;;;;;;630785;227;26810;-63
2022/06/17 10:12:06;;;;;;;2.65;1.73;;;22.20;41.70;;;;;;631624;227;26769;-62
2022/06/17 10:14:42;;;;;;;1.10;1.00;;;22.30;41.50;;;;;;622310;227;26875;-62
2022/06/17 10:20:20;;;;;;;1.98;1.50;;;22.40;41.70;;;;;;633136;225;26628;-63
2022/06/17 10:23:18;;;;;;;9.80;2.65;;;22.40;42.30;;;;;;633157;227;26829;-62
2022/06/17 10:25:49;;;;;;;2.67;1.62;;;22.40;41.80;;;;;;632241;227;26762;-62
2022/06/17 10:28:46;;;;;;;3.00;1.52;;;22.40;42.10;;;;;;632343;227;26570;-62
2022/06/17 10:31:26;;;;;;;2.25;1.35;;;22.40;42.10;;;;;;623153;227;26605;-63
2022/06/17 10:33:53;;;;;;;1.00;1.00;;;22.60;42.10;;;;;;632656;227;26530;-63
2022/06/17 10:36:20;;;;;;;2.92;1.60;;;22.80;42.50;;;;;;632624;227;26538;-63
2022/06/17 10:38:47;;;;;;;2.00;1.10;;;23.00;43.20;;;;;;632473;227;26609;-63
2022/06/17 10:41:14;;;;;;;1.33;1.17;;;23.10;42.20;;;;;;632271;227;26856;-63
2022/06/17 10:43:43;;;;;;;3.35;1.10;;;23.30;42.00;;;;;;632321;227;26549;-63
2022/06/17 10:46:11;;;;;;;2.08;1.27;;;23.40;41.70;;;;;;632334;227;26542;-63
2022/06/17 10:48:41;;;;;;;1.95;1.30;;;23.50;41.90;;;;;;631936;227;26529;-63
2022/06/17 10:51:08;;;;;;;1.70;1.30;;;23.50;41.60;;;;;;632314;227;26522;-63
2022/06/17 10:53:47;;;;;;;1.48;1.10;;;23.60;41.80;;;;;;632252;227;26538;-63
2022/06/17 10:56:18;;;;;;;2.80;1.33;;;23.50;41.80;;;;;;632185;227;26541;-63
2022/06/17 10:58:54;;;;;;;1.17;1.08;;;23.50;41.80;;;;;;631889;225;26565;-63
2022/06/17 11:01:21;;;;;;;1.92;1.48;;;23.50;41.80;;;;;;632127;227;26537;-63
2022/06/17 11:03:52;;;;;;;4.10;1.20;;;23.70;41.30;;;;;;632174;227;26505;-63
2022/06/17 11:06:18;;;;;;;1.00;0.93;;;23.70;40.90;;;;;;631955;227;26533;-63
2022/06/17 11:08:53;;;;;;;1.15;1.10;;;23.60;40.80;;;;;;631974;227;27073;-63
2022/06/17 11:14:23;;;;;;;1.20;1.10;;;23.80;40.50;;;;;;632144;227;26542;-63
2022/06/17 11:16:51;;;;;;;1.20;1.10;;;24.00;41.30;;;;;;632045;227;26506;-63
2022/06/17 11:19:18;;;;;;;1.27;1.17;;;24.20;40.70;;;;;;632003;227;26782;-63
2022/06/17 11:21:46;;;;;;;0.80;0.80;;;24.30;40.80;;;;;;631919;226;26507;-63
2022/06/17 11:24:22;;;;;;;1.08;0.93;;;24.40;40.70;;;;;;631958;227;26543;-63
2022/06/17 11:27:14;;;;;;;0.90;0.90;;;24.50;39.90;;;;;;632016;227;26808;-63
2022/06/17 11:29:43;;;;;;;1.17;1.15;;;24.50;40.10;;;;;;631634;226;26570;-63
2022/06/17 11:32:12;;;;;;;1.23;1.12;;;24.40;40.10;;;;;;633365;225;26832;-63
2022/06/17 11:34:39;;;;;;;1.17;1.00;;;24.50;39.90;;;;;;632010;227;26798;-63
2022/06/17 11:37:08;;;;;;;1.00;1.00;;;24.30;38.80;;;;;;631831;227;26526;-62
2022/06/17 11:39:36;;;;;;;1.25;0.98;;;24.40;39.20;;;;;;632505;227;26643;-62
2022/06/17 11:42:10;;;;;;;1.10;1.10;;;24.70;38.20;;;;;;632554;227;26570;-63
2022/06/17 11:44:37;;;;;;;1.00;1.00;;;24.70;38.20;;;;;;632988;227;26791;-63
2022/06/17 11:47:05;;;;;;;1.40;1.30;;;24.60;38.60;;;;;;633086;227;26743;-63
2022/06/17 11:49:33;;;;;;;0.75;0.75;;;24.70;38.50;;;;;;632925;227;26566;-63
2022/06/17 11:52:01;;;;;;;1.27;1.17;;;24.80;38.60;;;;;;632770;227;26516;-63
2022/06/17 11:54:31;;;;;;;1.15;0.93;;;24.90;38.40;;;;;;632709;227;26781;-63
2022/06/17 11:56:56;;;;;;;0.80;0.80;;;25.10;38.40;;;;;;632373;227;26577;-63
2022/06/17 11:59:26;;;;;;;1.55;1.23;;;25.20;38.00;;;;;;632748;227;26576;-63
2022/06/17 12:02:08;;;;;;;2.42;0.98;;;25.30;39.00;;;;;;632719;227;26546;-63
2022/06/17 12:04:45;;;;;;;1.50;1.08;;;25.40;37.60;;;;;;632798;227;26744;-63
2022/06/17 12:07:21;;;;;;;1.20;1.10;;;25.60;37.80;;;;;;632551;227;26513;-62
2022/06/17 12:09:48;;;;;;;0.90;0.90;;;25.80;37.60;;;;;;631566;227;26535;-62
2022/06/17 12:12:15;;;;;;;0.70;0.70;;;26.30;36.40;;;;;;632022;227;26534;-62
2022/06/17 12:14:55;;;;;;;1.10;1.10;;;26.30;36.80;;;;;;632115;227;26551;-62
2022/06/17 12:17:21;;;;;;;0.70;0.70;;;26.30;36.80;;;;;;631445;227;26542;-62
2022/06/17 12:19:48;;;;;;;0.80;0.80;;;26.70;36.70;;;;;;632041;226;26838;-63
2022/06/17 12:22:20;;;;;;;1.83;1.15;;;26.90;35.70;;;;;;632139;227;26537;-63
2022/06/17 12:24:52;;;;;;;1.00;1.00;;;27.60;35.50;;;;;;631898;227;26531;-62
2022/06/17 12:27:23;;;;;;;1.90;1.80;;;27.70;34.90;;;;;;631338;226;26549;-64
2022/06/17 12:30:13;;;;;;;0.90;0.90;;;27.70;34.90;;;;;;631863;227;26559;-63
2022/06/17 12:32:40;;;;;;;0.80;0.80;;;27.90;34.70;;;;;;628645;227;26798;-63
2022/06/17 12:35:10;;;;;;;0.73;0.73;;;27.70;34.80;;;;;;629289;227;26834;-63
2022/06/17 12:38:01;;;;;;;0.95;0.95;;;28.00;34.50;;;;;;628733;227;26513;-63
2022/06/17 12:40:49;;;;;;;0.70;0.70;;;28.40;33.40;;;;;;630951;227;26537;-63
2022/06/17 12:43:33;;;;;;;0.80;0.80;;;29.00;33.40;;;;;;625656;227;26561;-65
2022/06/17 12:46:01;;;;;;;1.20;1.20;;;30.40;32.90;;;;;;622185;231;26600;-65
2022/06/17 12:48:43;;;;;;;1.33;1.20;;;30.80;33.90;;;;;;623253;227;26557;-65
2022/06/17 12:54:12;;;;;;;1.10;1.00;;;31.20;30.70;;;;;;623472;227;26581;-66
2022/06/17 12:56:40;;;;;;;3.58;1.00;;;31.20;30.60;;;;;;632039;227;26809;-66
2022/06/17 12:59:08;;;;;;;1.30;0.90;;;32.00;30.00;;;;;;625421;227;26576;-65
2022/06/17 13:01:44;;;;;;;1.87;1.15;;;32.00;30.00;;;;;;630201;227;26929;-68
2022/06/17 13:04:13;;;;;;;0.70;0.70;;;31.70;30.00;;;;;;625350;227;26537;-68
2022/06/17 13:06:42;;;;;;;1.37;1.10;;;31.50;30.20;;;;;;629184;227;26762;-69
2022/06/17 13:09:10;;;;;;;0.95;0.90;;;31.10;29.70;;;;;;631342;227;26566;-70
2022/06/17 13:11:39;;;;;;;1.83;1.10;;;31.80;30.00;;;;;;630603;227;26557;-65
2022/06/17 13:14:07;;;;;;;0.80;0.80;;;31.70;30.00;;;;;;624902;227;26851;-65